createdAt,value
2022-10-10T00:01:14.606Z,7.78
2022-10-10T00:03:42.066Z,8.07
2022-10-10T00:06:09.498Z,7.95
2022-10-10T00:08:36.516Z,8.48
2022-10-10T00:11:04.221Z,8.10
2022-10-10T00:13:31.496Z,7.80
2022-10-10T00:15:58.424Z,8.18
2022-10-10T00:18:25.797Z,8.05
2022-10-10T00:20:53.395Z,8.50
2022-10-10T00:23:20.743Z,8.45
2022-10-10T00:25:48.212Z,8.63
2022-10-10T00:28:18.080Z,9.02
2022-10-10T00:30:45.756Z,9.68
2022-10-10T00:33:13.075Z,8.52
2022-10-10T00:35:39.877Z,9.10
2022-10-10T00:38:06.710Z,8.82
2022-10-10T00:40:33.603Z,9.15
2022-10-10T00:43:00.453Z,9.43
2022-10-10T00:45:39.515Z,8.63
2022-10-10T00:48:07.109Z,9.45
2022-10-10T00:50:36.438Z,8.82
2022-10-10T00:53:05.254Z,9.77
2022-10-10T00:55:31.888Z,8.68
2022-10-10T00:57:58.564Z,7.93
2022-10-10T01:00:25.150Z,8.25
2022-10-10T01:02:52.157Z,8.15
2022-10-10T01:05:19.189Z,7.47
2022-10-10T01:07:45.847Z,7.72
2022-10-10T01:10:15.022Z,8.15
2022-10-10T01:12:53.182Z,8.00
2022-10-10T01:15:38.489Z,8.45
2022-10-10T01:18:34.959Z,7.38
2022-10-10T01:21:25.021Z,8.30
2022-10-10T01:24:26.472Z,7.40
2022-10-10T01:27:08.545Z,7.50
2022-10-10T01:29:48.022Z,7.47
2022-10-10T01:32:23.629Z,7.28
2022-10-10T01:35:13.600Z,6.95
2022-10-10T01:37:57.648Z,7.43
2022-10-10T01:40:29.860Z,6.85
2022-10-10T01:42:58.708Z,6.68
2022-10-10T01:45:26.294Z,6.53
2022-10-10T01:47:54.419Z,5.82
2022-10-10T01:50:22.122Z,6.28
2022-10-10T01:53:06.918Z,5.70
2022-10-10T01:55:48.679Z,5.60
2022-10-10T01:58:24.427Z,5.50
2022-10-10T02:01:08.099Z,5.53
2022-10-10T02:03:39.977Z,6.25
2022-10-10T02:06:27.401Z,5.85
2022-10-10T02:09:17.717Z,5.32
2022-10-10T02:11:45.765Z,5.88
2022-10-10T02:14:16.101Z,5.57
2022-10-10T02:16:45.537Z,5.37
2022-10-10T02:19:16.959Z,5.13
2022-10-10T02:21:44.926Z,5.55
2022-10-10T02:24:12.278Z,4.85
2022-10-10T02:26:40.876Z,4.82
2022-10-10T02:29:11.851Z,5.13
2022-10-10T02:31:49.825Z,4.68
2022-10-10T02:38:39.767Z,5.00
2022-10-10T02:41:07.885Z,4.60
2022-10-10T02:43:34.728Z,4.82
2022-10-10T02:46:02.671Z,4.93
2022-10-10T02:48:29.260Z,4.75
2022-10-10T02:50:56.379Z,4.88
2022-10-10T02:53:22.912Z,4.70
2022-10-10T02:55:49.453Z,4.47
2022-10-10T02:58:16.025Z,4.68
2022-10-10T03:00:42.642Z,4.72
2022-10-10T03:03:09.244Z,4.55
2022-10-10T03:05:35.766Z,4.88
2022-10-10T03:08:02.262Z,4.25
2022-10-10T03:10:28.744Z,4.53
2022-10-10T03:12:55.279Z,4.60
2022-10-10T03:15:21.782Z,4.53
2022-10-10T03:17:48.326Z,4.57
2022-10-10T03:20:14.832Z,4.78
2022-10-10T03:22:41.614Z,4.10
2022-10-10T03:25:08.397Z,4.30
2022-10-10T03:27:34.911Z,3.85
2022-10-10T03:30:01.690Z,4.60
2022-10-10T03:32:28.275Z,4.38
2022-10-10T03:34:54.884Z,4.50
2022-10-10T03:37:21.587Z,4.75
2022-10-10T03:39:48.124Z,4.75
2022-10-10T03:42:14.608Z,4.45
2022-10-10T03:44:41.122Z,4.65
2022-10-10T03:47:07.574Z,4.82
2022-10-10T03:49:34.057Z,4.40
2022-10-10T03:52:01.388Z,4.28
2022-10-10T03:54:27.962Z,4.50
2022-10-10T03:56:54.436Z,5.38
2022-10-10T03:59:20.940Z,4.55
2022-10-10T04:01:48.309Z,4.88
2022-10-10T04:04:15.346Z,4.72
2022-10-10T04:06:41.941Z,5.00
2022-10-10T04:09:08.406Z,4.70
2022-10-10T04:11:36.924Z,4.63
2022-10-10T04:14:03.454Z,4.75
2022-10-10T04:16:29.978Z,4.80
2022-10-10T04:18:56.530Z,4.68
2022-10-10T04:21:23.053Z,4.72
2022-10-10T04:23:49.738Z,5.10
2022-10-10T04:26:16.204Z,4.57
2022-10-10T04:28:42.732Z,5.20
2022-10-10T04:31:09.495Z,5.22
2022-10-10T04:33:35.974Z,5.55
2022-10-10T04:36:02.516Z,4.82
2022-10-10T04:38:29.158Z,5.43
2022-10-10T04:40:55.663Z,4.97
2022-10-10T04:43:22.175Z,5.20
2022-10-10T04:45:48.744Z,5.55
2022-10-10T04:48:15.336Z,5.05
2022-10-10T04:50:41.867Z,6.30
2022-10-10T04:53:08.509Z,6.45
2022-10-10T04:55:35.085Z,5.63
2022-10-10T04:58:01.800Z,5.38
2022-10-10T05:00:28.315Z,5.82
2022-10-10T05:02:55.080Z,5.72
2022-10-10T05:05:21.629Z,6.32
2022-10-10T05:07:51.801Z,6.68
2022-10-10T05:10:21.141Z,6.32
2022-10-10T05:12:48.376Z,6.65
2022-10-10T05:15:15.177Z,6.45
2022-10-10T05:17:41.714Z,6.63
2022-10-10T05:20:08.556Z,6.72
2022-10-10T05:22:35.574Z,7.10
2022-10-10T05:25:02.678Z,7.45
2022-10-10T05:27:29.382Z,7.68
2022-10-10T05:29:56.113Z,7.30
2022-10-10T05:32:25.483Z,6.65
2022-10-10T05:34:52.076Z,7.28
2022-10-10T05:37:18.642Z,6.45
2022-10-10T05:39:45.299Z,6.40
2022-10-10T05:42:13.875Z,6.57
2022-10-10T05:44:40.389Z,7.13
2022-10-10T05:47:07.201Z,6.75
2022-10-10T05:49:33.735Z,6.00
2022-10-10T05:52:01.059Z,6.68
2022-10-10T05:54:27.622Z,6.38
2022-10-10T05:56:54.113Z,6.20
2022-10-10T05:59:20.621Z,5.80
2022-10-10T06:01:47.132Z,5.82
2022-10-10T06:04:13.675Z,5.95
2022-10-10T06:06:40.215Z,6.15
2022-10-10T06:09:06.758Z,5.93
2022-10-10T06:11:33.397Z,5.95
2022-10-10T06:13:59.945Z,6.13
2022-10-10T06:16:27.635Z,6.65
2022-10-10T06:18:56.527Z,6.80
2022-10-10T06:21:23.670Z,5.65
2022-10-10T06:23:50.213Z,6.63
2022-10-10T06:26:16.969Z,6.20
2022-10-10T06:28:43.570Z,5.95
2022-10-10T06:31:12.057Z,6.28
2022-10-10T06:33:40.782Z,6.57
2022-10-10T06:36:08.179Z,5.40
2022-10-10T06:38:39.491Z,5.85
2022-10-10T06:43:33.487Z,5.95
2022-10-10T06:46:00.974Z,5.97
2022-10-10T06:48:27.730Z,5.80
2022-10-10T06:51:02.021Z,5.60
2022-10-10T06:53:28.580Z,5.50
2022-10-10T06:55:55.679Z,5.78
2022-10-10T06:58:23.316Z,6.25
2022-10-10T07:00:51.352Z,5.40
2022-10-10T07:03:18.144Z,5.80
2022-10-10T07:05:44.985Z,5.28
2022-10-10T07:08:11.666Z,5.03
2022-10-10T07:10:38.211Z,4.82
2022-10-10T07:13:04.970Z,5.63
2022-10-10T07:15:31.506Z,4.72
2022-10-10T07:17:59.220Z,5.35
2022-10-10T07:20:26.925Z,4.82
2022-10-10T07:22:54.117Z,4.93
2022-10-10T07:25:20.782Z,4.88
2022-10-10T07:27:47.317Z,5.10
2022-10-10T07:30:13.846Z,4.78
2022-10-10T07:32:40.359Z,4.93
2022-10-10T07:35:07.122Z,5.18
2022-10-10T07:37:33.918Z,5.05
2022-10-10T07:40:00.424Z,5.53
2022-10-10T07:42:27.007Z,5.25
2022-10-10T07:44:53.573Z,5.45
2022-10-10T07:47:20.090Z,5.68
2022-10-10T07:49:46.659Z,5.70
2022-10-10T07:52:13.159Z,5.85
2022-10-10T07:54:39.632Z,4.43
2022-10-10T07:57:06.100Z,6.18
2022-10-10T07:59:32.587Z,5.90
2022-10-10T08:01:59.204Z,5.18
2022-10-10T08:04:25.743Z,6.32
2022-10-10T08:06:52.357Z,5.68
2022-10-10T08:09:18.900Z,5.72
2022-10-10T08:11:46.634Z,6.03
2022-10-10T08:14:13.133Z,6.22
2022-10-10T08:16:39.659Z,5.50
2022-10-10T08:19:06.434Z,6.72
2022-10-10T08:21:35.903Z,5.75
2022-10-10T08:24:02.846Z,6.28
2022-10-10T08:26:29.331Z,4.90
2022-10-10T08:28:56.460Z,5.32
2022-10-10T08:31:23.000Z,5.40
2022-10-10T08:33:50.916Z,4.78
2022-10-10T08:36:19.761Z,5.47
2022-10-10T08:38:47.192Z,4.88
2022-10-10T08:41:50.558Z,4.68
2022-10-10T08:44:23.112Z,5.22
2022-10-10T08:47:03.268Z,5.35
2022-10-10T08:49:52.165Z,4.57
2022-10-10T08:52:41.248Z,4.72
2022-10-10T08:55:17.838Z,4.38
2022-10-10T08:57:52.009Z,4.40
2022-10-10T09:00:21.738Z,4.53
2022-10-10T09:02:54.357Z,3.70
2022-10-10T09:05:35.857Z,4.47
2022-10-10T09:08:16.465Z,4.07
2022-10-10T09:10:56.883Z,4.23
2022-10-10T09:13:46.729Z,4.30
2022-10-10T09:16:31.370Z,3.78
2022-10-10T09:19:12.538Z,4.20
2022-10-10T09:21:41.989Z,3.60
2022-10-10T09:24:25.243Z,4.00
2022-10-10T09:27:00.732Z,3.78
2022-10-10T09:29:28.966Z,3.58
2022-10-10T09:32:03.446Z,3.72
2022-10-10T09:34:39.201Z,3.88
2022-10-10T09:37:16.440Z,3.55
2022-10-10T09:40:03.889Z,3.67
2022-10-10T09:42:38.185Z,3.63
2022-10-10T09:45:14.511Z,3.88
2022-10-10T09:47:41.150Z,4.00
2022-10-10T09:50:11.380Z,3.83
2022-10-10T09:52:37.853Z,4.32
2022-10-10T09:55:29.010Z,3.85
2022-10-10T09:57:58.300Z,3.50
2022-10-10T10:00:28.532Z,3.83
2022-10-10T10:03:15.227Z,4.25
2022-10-10T10:05:44.860Z,3.97
2022-10-10T10:08:25.741Z,4.03
2022-10-10T10:10:52.521Z,3.80
2022-10-10T10:13:25.790Z,3.72
2022-10-10T10:16:00.047Z,4.00
2022-10-10T10:18:28.766Z,3.72
2022-10-10T10:21:07.338Z,3.97
2022-10-10T10:23:37.444Z,4.38
2022-10-10T10:26:06.557Z,4.80
2022-10-10T10:28:42.615Z,3.97
2022-10-10T10:31:28.469Z,3.83
2022-10-10T10:33:57.828Z,4.82
2022-10-10T10:36:29.066Z,3.97
2022-10-10T10:41:50.660Z,4.30
2022-10-10T10:44:33.168Z,3.70
2022-10-10T10:47:11.516Z,3.70
2022-10-10T10:49:40.829Z,3.13
2022-10-10T10:52:26.223Z,3.00
2022-10-10T10:55:17.136Z,3.05
2022-10-10T10:58:05.140Z,3.08
2022-10-10T11:01:21.017Z,3.10
2022-10-10T11:05:18.208Z,3.28
2022-10-10T11:07:20.449Z,3.22
2022-10-10T11:10:06.145Z,3.63
2022-10-10T11:12:53.714Z,3.13
2022-10-10T11:18:45.752Z,3.20
2022-10-10T11:21:16.959Z,3.95
2022-10-10T11:26:21.156Z,3.78
2022-10-10T11:28:56.956Z,3.20
2022-10-10T11:31:57.420Z,3.20
2022-10-10T11:34:34.105Z,3.42
2022-10-10T11:37:04.530Z,3.00
2022-10-10T11:39:44.778Z,2.80
2022-10-10T11:42:15.119Z,3.35
2022-10-10T11:45:01.933Z,2.73
2022-10-10T11:47:32.935Z,3.67
2022-10-10T11:49:59.335Z,2.88
2022-10-10T11:52:39.618Z,3.03
2022-10-10T11:55:13.295Z,3.17
2022-10-10T11:57:53.756Z,2.40
2022-10-10T12:00:20.552Z,3.00
2022-10-10T12:02:48.026Z,2.90
2022-10-10T12:05:23.761Z,2.83
2022-10-10T12:08:24.058Z,2.95
2022-10-10T12:11:00.509Z,2.60
2022-10-10T12:13:38.756Z,3.13
2022-10-10T12:16:08.283Z,2.97
2022-10-10T12:18:47.316Z,2.95
2022-10-10T12:21:17.394Z,3.05
2022-10-10T12:23:48.245Z,2.78
2022-10-10T12:26:17.616Z,2.67
2022-10-10T12:29:03.483Z,3.05
2022-10-10T12:31:34.887Z,2.97
2022-10-10T12:36:29.531Z,3.22
2022-10-10T12:39:03.103Z,3.38
2022-10-10T12:41:46.999Z,3.40
2022-10-10T12:44:23.507Z,3.05
2022-10-10T12:47:14.535Z,2.60
2022-10-10T12:50:12.757Z,3.10
2022-10-10T12:52:51.288Z,2.75
2022-10-10T12:55:26.470Z,3.67
2022-10-10T12:57:55.663Z,2.55
2022-10-10T13:00:24.876Z,2.92
2022-10-10T13:02:59.614Z,3.15
2022-10-10T13:05:31.700Z,3.35
2022-10-10T13:08:07.667Z,2.85
2022-10-10T13:10:34.170Z,3.17
2022-10-10T13:13:02.265Z,2.78
2022-10-10T13:15:29.529Z,3.63
2022-10-10T13:17:56.064Z,3.03
2022-10-10T13:20:28.998Z,2.63
2022-10-10T13:22:56.592Z,3.15
2022-10-10T13:25:23.916Z,3.38
2022-10-10T13:27:50.800Z,3.70
2022-10-10T13:30:22.383Z,3.25
2022-10-10T13:32:49.376Z,3.17
2022-10-10T13:35:27.118Z,2.88
2022-10-10T13:37:59.016Z,3.13
2022-10-10T13:40:26.331Z,3.55
2022-10-10T13:42:53.616Z,2.95
2022-10-10T13:45:29.338Z,3.13
2022-10-10T13:48:02.953Z,2.70
2022-10-10T13:50:53.362Z,2.88
2022-10-10T13:53:27.107Z,2.95
2022-10-10T13:55:59.537Z,3.88
2022-10-10T13:58:32.751Z,3.05
2022-10-10T14:01:01.925Z,4.05
2022-10-10T14:03:29.880Z,3.38
2022-10-10T14:05:56.555Z,3.10
2022-10-10T14:08:28.800Z,3.22
2022-10-10T14:11:04.324Z,3.40
2022-10-10T14:13:31.712Z,2.72
2022-10-10T14:16:33.865Z,3.95
2022-10-10T14:19:00.471Z,3.63
2022-10-10T14:21:27.012Z,3.25
2022-10-10T14:23:53.604Z,3.45
2022-10-10T14:26:20.819Z,3.55
2022-10-10T14:28:47.836Z,3.25
2022-10-10T14:31:14.652Z,3.25
2022-10-10T14:33:41.158Z,3.15
2022-10-10T14:36:07.967Z,3.13
2022-10-10T14:38:34.489Z,3.22
2022-10-10T14:41:01.936Z,3.22
2022-10-10T14:43:28.746Z,2.97
2022-10-10T14:45:55.242Z,3.33
2022-10-10T14:48:22.192Z,3.22
2022-10-10T14:50:49.446Z,3.35
2022-10-10T14:53:16.272Z,3.58
2022-10-10T14:55:43.671Z,3.53
2022-10-10T14:58:18.171Z,4.22
2022-10-10T15:00:45.377Z,4.70
2022-10-10T15:03:12.037Z,4.22
2022-10-10T15:05:38.862Z,4.20
2022-10-10T15:08:05.722Z,3.70
2022-10-10T15:10:34.022Z,3.25
2022-10-10T15:13:01.833Z,3.05
2022-10-10T15:15:28.436Z,3.30
2022-10-10T15:17:57.103Z,3.50
2022-10-10T15:20:30.392Z,3.53
2022-10-10T15:23:05.275Z,3.13
2022-10-10T15:25:34.036Z,2.75
2022-10-10T15:28:02.860Z,3.60
2022-10-10T15:30:30.210Z,4.20
2022-10-10T15:32:56.722Z,3.30
2022-10-10T15:35:25.105Z,3.35
2022-10-10T15:37:51.693Z,3.67
2022-10-10T15:40:21.447Z,3.63
2022-10-10T15:42:48.759Z,3.70
2022-10-10T15:45:30.914Z,4.32
2022-10-10T15:48:02.225Z,4.10
2022-10-10T15:50:28.766Z,4.05
2022-10-10T15:52:55.325Z,3.58
2022-10-10T15:55:21.880Z,4.03
2022-10-10T15:57:48.473Z,4.50
2022-10-10T16:00:15.664Z,4.72
2022-10-10T16:02:42.119Z,4.05
2022-10-10T16:05:10.020Z,4.00
2022-10-10T16:07:45.360Z,4.53
2022-10-10T16:10:14.842Z,4.97
2022-10-10T16:12:41.360Z,5.30
2022-10-10T16:15:08.436Z,5.00
2022-10-10T16:17:35.042Z,5.80
2022-10-10T16:20:02.345Z,5.38
2022-10-10T16:22:28.860Z,6.43
2022-10-10T16:27:42.881Z,6.60
2022-10-10T16:30:10.324Z,6.82
2022-10-10T16:32:42.017Z,6.22
2022-10-10T16:35:10.030Z,6.00
2022-10-10T16:37:36.516Z,5.05
2022-10-10T16:40:03.274Z,4.97
2022-10-10T16:42:29.766Z,4.78
2022-10-10T16:44:56.349Z,4.32
2022-10-10T16:47:22.850Z,4.90
2022-10-10T16:49:49.384Z,4.72
2022-10-10T16:52:15.884Z,6.10
2022-10-10T16:54:42.468Z,4.95
2022-10-10T16:57:11.979Z,5.30
2022-10-10T16:59:38.724Z,5.38
2022-10-10T17:02:05.274Z,6.47
2022-10-10T17:04:31.838Z,6.55
2022-10-10T17:06:58.499Z,7.05
2022-10-10T17:09:26.671Z,6.85
2022-10-10T17:11:53.215Z,6.85
2022-10-10T17:14:19.781Z,7.57
2022-10-10T17:17:10.996Z,7.25
2022-10-10T17:19:33.016Z,6.75
2022-10-10T17:21:59.538Z,7.78
2022-10-10T17:24:26.098Z,7.93
2022-10-10T17:26:52.779Z,8.48
2022-10-10T17:29:19.461Z,5.43
2022-10-10T17:31:45.981Z,2.63
2022-10-10T17:34:12.685Z,2.00
2022-10-10T17:36:39.280Z,1.83
2022-10-10T17:39:07.685Z,1.73
2022-10-10T17:41:34.506Z,1.55
2022-10-10T17:44:01.177Z,1.92
2022-10-10T17:46:36.210Z,1.50
2022-10-10T17:49:05.025Z,1.40
2022-10-10T17:51:32.027Z,1.45
2022-10-10T17:53:59.998Z,1.80
2022-10-10T17:56:27.160Z,1.48
2022-10-10T17:58:54.209Z,1.73
2022-10-10T18:01:21.577Z,1.80
2022-10-10T18:03:48.595Z,1.73
2022-10-10T18:06:20.731Z,1.80
2022-10-10T18:08:51.715Z,2.20
2022-10-10T18:11:21.558Z,2.15
2022-10-10T18:13:48.516Z,2.17
2022-10-10T18:16:18.012Z,1.50
2022-10-10T18:18:50.687Z,2.30
2022-10-10T18:21:19.419Z,2.40
2022-10-10T18:23:46.244Z,1.80
2022-10-10T18:26:17.986Z,2.38
2022-10-10T18:28:44.824Z,2.38
2022-10-10T18:31:20.923Z,1.55
2022-10-10T18:33:48.503Z,2.33
2022-10-10T18:36:17.689Z,2.08
2022-10-10T18:38:44.739Z,1.70
2022-10-10T18:41:14.899Z,1.80
2022-10-10T18:43:42.527Z,1.95
2022-10-10T18:46:11.844Z,2.75
2022-10-10T18:48:40.310Z,2.33
2022-10-10T18:51:13.492Z,2.58
2022-10-10T18:53:42.581Z,2.70
2022-10-10T18:56:10.867Z,2.10
2022-10-10T18:58:38.430Z,2.25
2022-10-10T19:01:08.666Z,2.80
2022-10-10T19:03:37.007Z,2.55
2022-10-10T19:06:06.262Z,2.35
2022-10-10T19:08:33.732Z,2.95
2022-10-10T19:11:01.632Z,2.92
2022-10-10T19:13:29.219Z,2.63
2022-10-10T19:15:56.650Z,2.47
2022-10-10T19:18:23.565Z,2.08
2022-10-10T19:20:50.456Z,3.05
2022-10-10T19:23:17.377Z,2.58
2022-10-10T19:25:46.381Z,2.83
2022-10-10T19:28:13.201Z,3.15
2022-10-10T19:30:41.331Z,2.80
2022-10-10T19:33:11.012Z,3.35
2022-10-10T19:35:39.446Z,3.65
2022-10-10T19:38:07.357Z,3.00
2022-10-10T19:40:34.632Z,2.40
2022-10-10T19:43:01.985Z,3.33
2022-10-10T19:45:28.691Z,3.13
2022-10-10T19:47:55.525Z,2.35
2022-10-10T19:50:22.338Z,2.85
2022-10-10T19:52:49.047Z,2.85
2022-10-10T19:55:18.449Z,2.60
2022-10-10T19:57:45.184Z,3.20
2022-10-10T20:00:16.323Z,3.08
2022-10-10T20:02:43.932Z,2.95
2022-10-10T20:05:10.998Z,2.45
2022-10-10T20:07:37.689Z,2.40
2022-10-10T20:10:05.083Z,2.65
2022-10-10T20:12:31.967Z,2.95
2022-10-10T20:15:00.004Z,2.47
2022-10-10T20:17:27.778Z,3.15
2022-10-10T20:19:54.588Z,2.53
2022-10-10T20:22:24.097Z,2.90
2022-10-10T20:24:50.786Z,2.90
2022-10-10T20:27:17.467Z,3.00
2022-10-10T20:29:44.237Z,2.85
2022-10-10T20:32:11.037Z,3.00
2022-10-10T20:34:37.598Z,3.25
2022-10-10T20:37:04.158Z,3.30
2022-10-10T20:39:30.679Z,2.75
2022-10-10T20:41:57.125Z,3.28
2022-10-10T20:44:23.584Z,2.53
2022-10-10T20:46:50.084Z,4.30
2022-10-10T20:49:18.920Z,3.05
2022-10-10T20:51:48.721Z,2.38
2022-10-10T20:54:17.188Z,2.85
2022-10-10T20:56:44.770Z,3.05
2022-10-10T20:59:14.254Z,3.72
2022-10-10T21:01:41.029Z,3.15
2022-10-10T21:04:10.972Z,2.67
2022-10-10T21:06:38.411Z,2.90
2022-10-10T21:09:07.223Z,3.42
2022-10-10T21:11:34.497Z,3.00
2022-10-10T21:14:01.867Z,3.33
2022-10-10T21:16:31.480Z,2.95
2022-10-10T21:18:58.862Z,2.92
2022-10-10T21:21:27.088Z,3.00
2022-10-10T21:23:56.190Z,3.13
2022-10-10T21:26:24.034Z,2.83
2022-10-10T21:28:50.953Z,2.60
2022-10-10T21:31:23.325Z,2.83
2022-10-10T21:33:49.986Z,2.85
2022-10-10T21:36:18.854Z,3.00
2022-10-10T21:38:45.367Z,3.00
2022-10-10T21:41:19.236Z,2.80
2022-10-10T21:43:47.776Z,2.92
2022-10-10T21:46:17.131Z,3.25
2022-10-10T21:48:44.126Z,2.63
2022-10-10T21:51:10.865Z,3.10
2022-10-10T21:53:37.375Z,3.28
2022-10-10T21:56:08.776Z,3.50
2022-10-10T21:58:37.757Z,3.03
2022-10-10T22:01:17.721Z,3.17
2022-10-10T22:03:45.308Z,2.92
2022-10-10T22:06:15.015Z,2.88
2022-10-10T22:08:42.213Z,4.07
2022-10-10T22:11:14.338Z,4.95
2022-10-10T22:13:40.955Z,3.92
2022-10-10T22:16:08.861Z,3.58
2022-10-10T22:18:36.334Z,3.80
2022-10-10T22:21:05.491Z,4.25
2022-10-10T22:23:32.120Z,3.75
2022-10-10T22:25:58.739Z,4.63
2022-10-10T22:28:25.298Z,4.75
2022-10-10T22:30:51.849Z,5.15
2022-10-10T22:33:18.380Z,6.45
2022-10-10T22:35:45.191Z,5.05
2022-10-10T22:38:11.670Z,4.38
2022-10-10T22:40:38.406Z,5.40
2022-10-10T22:43:04.961Z,5.20
2022-10-10T22:45:31.500Z,5.38
2022-10-10T22:47:57.964Z,5.00
2022-10-10T22:50:24.489Z,5.38
2022-10-10T22:52:50.946Z,6.05
2022-10-10T22:55:18.864Z,5.40
2022-10-10T22:57:46.009Z,6.30
2022-10-10T23:00:13.171Z,5.72
2022-10-10T23:02:39.770Z,6.15
2022-10-10T23:05:07.010Z,6.68
2022-10-10T23:07:33.766Z,6.70
2022-10-10T23:10:00.304Z,6.72
2022-10-10T23:12:26.842Z,7.60
2022-10-10T23:14:53.413Z,7.50
2022-10-10T23:17:19.957Z,7.82
2022-10-10T23:19:46.497Z,9.00
2022-10-10T23:22:13.052Z,8.23
2022-10-10T23:24:40.023Z,8.82
2022-10-10T23:27:06.509Z,9.88
2022-10-10T23:29:33.278Z,9.30
2022-10-10T23:31:59.748Z,9.68
2022-10-10T23:34:26.455Z,10.57
2022-10-10T23:36:53.013Z,10.20
2022-10-10T23:39:19.518Z,9.80
2022-10-10T23:41:45.984Z,10.77
2022-10-10T23:44:12.478Z,11.85
2022-10-10T23:46:38.966Z,11.32
2022-10-10T23:49:05.463Z,9.35
2022-10-10T23:51:32.153Z,8.88
2022-10-10T23:53:58.771Z,9.15
2022-10-10T23:56:25.347Z,10.57
2022-10-10T23:58:51.812Z,9.63
